Wind From: 11-12-2017 12:03 Until: 12-12-2017 06:00 warning for: Wind Level: Orange info button

Power and phone distribution networks may be disrupted for relatively long periods., Roofs and chimneys can be damaged. , Tree branches may break. , Vehicles can be deported. , Traffic may be disrupted, particularly on secondary roads in forest areas. Limit your trips. , Limit your speed in highway driving, especially if you drive a vehicle or hitch sensitive to wind. , Do not go for walks in forests or along the coast., In town, be vigilant against possible falling objects., Do not work on roofs and do not touch any electrical line fallen on the ground., Store or secure sensitive objects to wind or likely to be damaged., Always install power generators outside buildings. 


Meteo18 Weather Cam more information Meteo18 Weather Cam


Thunder radar more information blitzortung!


Rain radar more information rain snow radar


Visit our other weather sites:

Template documentation
and downloads

And another site



Weather Underground History page Text

Daily Summary for February 5, 2017 Units:  English    Metric   Both
« Previous Day
Next Day »
Daily Weekly Monthly Yearly Custom
  High: Low: Average:
Temperature: 50.2 °F 40.5 °F 44.4 °F
Dew Point: 45 °F 37.4 °F 41.2 °F
Humidity: 96 % 71 % 89 %
Wind Speed: 16 mph 0 mph 4.4 mph
Wind Gust: 24 mph - -
Wind:- - SW
Pressure: 29.8 in 29.5 in -
Precipitation: 0.33 in    
Historical Graphs
 
 
Tabular Data for February 5, 2017
Time Temperature Dew Point Pressure Wind Wind Speed Wind Gust Humidity Rainfall Rate (Hourly)
00:02 40.6 °F 37.4 °F 29.7 in SSE 1 mph 3 mph 88 % 0 in
00:07 40.6 °F 37.4 °F 29.7 in SSE 1 mph 3 mph 88 % 0 in
00:12 40.8 °F 37.6 °F 29.7 in Calm   3 mph 88 % 0 in
00:17 40.8 °F 37.8 °F 29.7 in Calm   2 mph 89 % 0 in
00:22 40.8 °F 37.8 °F 29.7 in Calm   2 mph 89 % 0 in
00:27 40.8 °F 37.8 °F 29.7 in Calm   1 mph 89 % 0.01 in
00:32 40.8 °F 37.8 °F 29.7 in Calm   1 mph 89 % 0.01 in
00:37 41 °F 37.9 °F 29.7 in Calm   1 mph 89 % 0.01 in
00:42 40.8 °F 38.1 °F 29.7 in Calm   1 mph 90 % 0.01 in
00:47 40.6 °F 38.3 °F 29.7 in Calm   1 mph 91 % 0.01 in
00:52 40.6 °F 38.3 °F 29.7 in Calm   1 mph 91 % 0.02 in
00:57 40.6 °F 38.3 °F 29.7 in South 1 mph 2 mph 91 % 0.02 in
01:02 40.6 °F 38.3 °F 29.6 in Calm   2 mph 91 % 0.02 in
01:07 40.6 °F 38.3 °F 29.6 in SSW 1 mph 2 mph 91 % 0.02 in
01:12 40.6 °F 38.5 °F 29.6 in SSW 1 mph 1 mph 92 % 0.02 in
01:17 40.8 °F 38.7 °F 29.6 in Calm   1 mph 92 % 0.02 in
01:22 40.8 °F 38.7 °F 29.6 in Calm   1 mph 92 % 0.02 in
01:27 41.2 °F 39 °F 29.6 in Calm   1 mph 92 % 0.02 in
01:32 41.2 °F 39 °F 29.6 in Calm   1 mph 92 % 0.02 in
01:37 41.2 °F 39 °F 29.6 in South 1 mph 1 mph 92 % 0.02 in
01:42 41.2 °F 39 °F 29.6 in Calm   1 mph 92 % 0.02 in
01:47 41.4 °F 39.6 °F 29.6 in Calm   1 mph 93 % 0.03 in
01:52 41.4 °F 39.6 °F 29.6 in Calm   1 mph 93 % 0.03 in
01:57 41.4 °F 39.6 °F 29.6 in Calm   1 mph 93 % 0.04 in
02:02 41.4 °F 39.6 °F 29.6 in Calm   1 mph 93 % 0.05 in
02:07 41.4 °F 39.6 °F 29.6 in Calm   1 mph 93 % 0.05 in
02:12 41.4 °F 39.7 °F 29.6 in Calm   1 mph 94 % 0.04 in
02:17 41.4 °F 39.7 °F 29.6 in Calm     94 % 0.05 in
02:22 41.4 °F 39.7 °F 29.6 in Calm     94 % 0.06 in
02:27 41.2 °F 39.6 °F 29.6 in SSE 1 mph 1 mph 94 % 0.06 in
02:32 41.2 °F 39.6 °F 29.6 in NNE 1 mph 2 mph 94 % 0.06 in
02:37 40.8 °F 39.2 °F 29.6 in NNW 1 mph 2 mph 94 % 0.06 in
02:42 40.5 °F 38.8 °F 29.6 in Calm   2 mph 94 % 0.06 in
02:47 40.6 °F 39.4 °F 29.6 in Calm   2 mph 95 % 0.05 in
02:52 41 °F 39.9 °F 29.6 in Calm   1 mph 96 % 0.05 in
02:57 41.4 °F 40.3 °F 29.6 in Calm   1 mph 96 % 0.05 in
03:02 41.4 °F 40.3 °F 29.6 in ENE 2 mph 2 mph 96 % 0.04 in
03:07 41.2 °F 39.9 °F 29.6 in Calm   2 mph 95 % 0.04 in
03:12 41.4 °F 40.3 °F 29.6 in Calm   2 mph 96 % 0.03 in
03:17 41.4 °F 40.3 °F 29.6 in Calm   2 mph 96 % 0.03 in
03:22 41.4 °F 40.3 °F 29.6 in Calm   2 mph 96 % 0.03 in
03:27 41.5 °F 40.5 °F 29.6 in East 2 mph 2 mph 96 % 0.02 in
03:32 41.5 °F 40.5 °F 29.6 in East 2 mph 5 mph 96 % 0.02 in
03:37 41.5 °F 40.5 °F 29.6 in ESE 1 mph 5 mph 96 % 0.02 in
03:42 41.5 °F 40.5 °F 29.6 in Calm   5 mph 96 % 0.02 in
03:47 41.5 °F 40.5 °F 29.6 in Calm   4 mph 96 % 0.02 in
03:52 41.5 °F 40.3 °F 29.6 in Calm   3 mph 95 % 0.01 in
03:57 41.4 °F 40.1 °F 29.6 in SE 1 mph 3 mph 95 % 0.02 in
04:02 41.4 °F 40.1 °F 29.5 in SSE 1 mph 3 mph 95 % 0.02 in
04:07 41.4 °F 40.1 °F 29.5 in ESE 2 mph 4 mph 95 % 0.03 in
04:12 41.4 °F 40.1 °F 29.5 in Calm   4 mph 95 % 0.04 in
04:17 41.4 °F 40.1 °F 29.5 in Calm   4 mph 95 % 0.04 in
04:22 41.5 °F 40.5 °F 29.5 in South 1 mph 4 mph 96 % 0.04 in
04:27 41.5 °F 40.5 °F 29.5 in Calm   3 mph 96 % 0.05 in
04:32 41.7 °F 40.6 °F 29.5 in ESE 3 mph 3 mph 96 % 0.06 in
04:37 41.7 °F 40.6 °F 29.5 in Calm   3 mph 96 % 0.07 in
04:42 41.7 °F 40.6 °F 29.5 in Calm   3 mph 96 % 0.07 in
04:47 41.7 °F 40.6 °F 29.5 in SE 3 mph 3 mph 96 % 0.08 in
04:52 41.7 °F 40.6 °F 29.5 in SE 3 mph 6 mph 96 % 0.09 in
04:57 41.7 °F 40.6 °F 29.5 in ESE 1 mph 7 mph 96 % 0.08 in
05:02 41.5 °F 40.5 °F 29.5 in ESE 4 mph 7 mph 96 % 0.06 in
05:07 41.5 °F 40.5 °F 29.5 in ESE 1 mph 7 mph 96 % 0.06 in
05:12 41.5 °F 40.5 °F 29.5 in ESE 1 mph 4 mph 96 % 0.06 in
05:17 41.5 °F 40.5 °F 29.5 in SE 1 mph 4 mph 96 % 0.06 in
05:22 41.7 °F 40.6 °F 29.5 in Calm   4 mph 96 % 0.06 in
05:32 41.7 °F 40.6 °F 29.5 in Calm   4 mph 96 % 0.05 in
05:37 42.1 °F 41 °F 29.5 in SE 4 mph 6 mph 96 % 0.05 in
05:42 42.1 °F 41 °F 29.5 in SE 2 mph 7 mph 96 % 0.04 in
05:47 42.3 °F 41.2 °F 29.5 in SSE 2 mph 7 mph 96 % 0.04 in
05:52 42.3 °F 41.2 °F 29.5 in South 1 mph 7 mph 96 % 0.04 in
05:57 42.4 °F 41.4 °F 29.5 in SSW 2 mph 6 mph 96 % 0.05 in
06:02 42.4 °F 41.4 °F 29.5 in ESE 5 mph 6 mph 96 % 0.05 in
06:07 42.4 °F 41.4 °F 29.5 in ESE 5 mph 8 mph 96 % 0.05 in
06:12 42.4 °F 41.4 °F 29.5 in SSE 1 mph 8 mph 96 % 0.04 in
06:17 42.4 °F 41.4 °F 29.5 in SSW 2 mph 8 mph 96 % 0.04 in
06:22 42.4 °F 41.4 °F 29.5 in South 1 mph 6 mph 96 % 0.04 in
06:27 42.4 °F 41.4 °F 29.5 in ESE 4 mph 6 mph 96 % 0.03 in
06:32 42.6 °F 41.5 °F 29.5 in SSE 3 mph 7 mph 96 % 0.03 in
06:37 43 °F 41.9 °F 29.5 in SSE 5 mph 9 mph 96 % 0.02 in
06:42 43 °F 41.9 °F 29.5 in South 4 mph 9 mph 96 % 0.02 in
06:47 43.2 °F 42.1 °F 29.5 in SSW 4 mph 9 mph 96 % 0.02 in
06:52 43.2 °F 42.1 °F 29.5 in SSW 2 mph 9 mph 96 % 0.01 in
06:57 43.3 °F 42.3 °F 29.5 in South 3 mph 9 mph 96 % 0.01 in
07:07 43.3 °F 42.1 °F 29.5 in SE 2 mph 8 mph 95 % 0.01 in
07:12 43.3 °F 42.1 °F 29.5 in SSE 3 mph 8 mph 95 % 0 in
07:17 43.5 °F 42.3 °F 29.5 in SSE 2 mph 6 mph 95 % 0 in
07:22 43.7 °F 42.6 °F 29.5 in South 2 mph 6 mph 96 % 0 in
07:27 44.1 °F 43 °F 29.5 in South 3 mph 6 mph 96 % 0 in
07:32 44.4 °F 43.2 °F 29.5 in South 6 mph 8 mph 95 % 0 in
07:37 45.1 °F 43.9 °F 29.5 in SW 8 mph 9 mph 95 % 0 in
07:42 45.5 °F 43.9 °F 29.5 in SSW 10 mph 11 mph 94 % 0 in
07:47 45.7 °F 44.1 °F 29.5 in SSW 4 mph 11 mph 94 % 0 in
07:52 45.9 °F 43.9 °F 29.5 in SSW 5 mph 11 mph 93 % 0 in
07:57 46 °F 44.1 °F 29.5 in SSW 8 mph 11 mph 93 % 0 in
08:02 46.2 °F 44.2 °F 29.5 in SSW 6 mph 11 mph 93 % 0 in
08:07 46.6 °F 44.4 °F 29.5 in SW 11 mph 15 mph 92 % 0 in
08:12 46.4 °F 44.4 °F 29.5 in SW 5 mph 15 mph 93 % 0 in
08:17 46.2 °F 44.2 °F 29.5 in SSW 5 mph 15 mph 93 % 0 in
08:22 46 °F 44.1 °F 29.5 in SW 8 mph 14 mph 93 % 0 in
08:27 46 °F 44.1 °F 29.5 in SSW 6 mph 11 mph 93 % 0 in
08:37 46 °F 44.1 °F 29.5 in SSW 5 mph 11 mph 93 % 0 in
08:42 46.2 °F 44.2 °F 29.5 in SSW 6 mph 12 mph 93 % 0 in
08:47 46.2 °F 44.1 °F 29.5 in SSW 9 mph 12 mph 92 % 0 in
08:52 46.6 °F 44.4 °F 29.5 in SSW 9 mph 12 mph 92 % 0 in
08:57 46.6 °F 44.4 °F 29.5 in SSW 11 mph 13 mph 92 % 0 in
09:02 46.8 °F 44.6 °F 29.5 in South 12 mph 18 mph 92 % 0 in
09:07 46.9 °F 44.4 °F 29.5 in SW 11 mph 18 mph 91 % 0 in
09:12 46.9 °F 44.4 °F 29.5 in SW 13 mph 18 mph 91 % 0 in
09:17 47.1 °F 45 °F 29.5 in SW 11 mph 20 mph 92 % 0 in
09:22 47.3 °F 44.8 °F 29.5 in WSW 8 mph 20 mph 91 % 0 in
09:27 47.5 °F 44.8 °F 29.5 in West 10 mph 20 mph 90 % 0 in
09:32 47.5 °F 44.8 °F 29.5 in WSW 11 mph 20 mph 90 % 0 in
09:37 47.5 °F 44.8 °F 29.5 in WSW 12 mph 19 mph 90 % 0 in
09:42 47.7 °F 44.6 °F 29.5 in SW 12 mph 24 mph 89 % 0.01 in
09:47 47.5 °F 44.4 °F 29.5 in WSW 10 mph 24 mph 89 % 0.01 in
09:52 47.5 °F 44.4 °F 29.5 in SW 7 mph 24 mph 89 % 0.01 in
09:57 47.5 °F 44.4 °F 29.5 in WSW 11 mph 20 mph 89 % 0.01 in
10:02 47.3 °F 44.2 °F 29.5 in SSW 8 mph 19 mph 89 % 0.01 in
10:07 47.1 °F 43.7 °F 29.5 in SW 8 mph 19 mph 88 % 0.01 in
10:12 47.1 °F 43.7 °F 29.5 in WSW 8 mph 18 mph 88 % 0.01 in
10:17 47.1 °F 43.7 °F 29.5 in West 7 mph 21 mph 88 % 0.01 in
10:22 46.9 °F 43.3 °F 29.5 in West 13 mph 21 mph 87 % 0.01 in
10:27 47.1 °F 43.5 °F 29.5 in WSW 4 mph 21 mph 87 % 0.01 in
10:32 47.1 °F 43.5 °F 29.5 in West 8 mph 16 mph 87 % 0.01 in
10:37 47.1 °F 43.7 °F 29.5 in SSW 7 mph 16 mph 88 % 0.01 in
10:42 47.1 °F 43.7 °F 29.5 in SW 8 mph 16 mph 88 % 0 in
10:47 47.1 °F 43.7 °F 29.5 in WSW 6 mph 17 mph 88 % 0 in
10:52 47.3 °F 43.9 °F 29.5 in SSW 1 mph 17 mph 88 % 0 in
10:57 47.3 °F 43.9 °F 29.5 in SW 4 mph 17 mph 88 % 0 in
11:02 47.5 °F 44.1 °F 29.5 in SW 10 mph 15 mph 88 % 0 in
11:07 47.5 °F 44.1 °F 29.5 in South 6 mph 15 mph 88 % 0 in
11:12 47.7 °F 44.1 °F 29.5 in WSW 9 mph 15 mph 87 % 0 in
11:17 47.7 °F 44.1 °F 29.5 in SW 8 mph 15 mph 87 % 0 in
11:22 47.7 °F 44.1 °F 29.5 in SW 7 mph 15 mph 87 % 0 in
11:27 47.7 °F 44.1 °F 29.5 in SW 6 mph 15 mph 87 % 0 in
11:32 47.8 °F 44.2 °F 29.5 in SW 5 mph 13 mph 87 % 0 in
11:37 47.8 °F 44.2 °F 29.5 in SSW 6 mph 13 mph 87 % 0 in
11:42 47.8 °F 44.2 °F 29.5 in WSW 7 mph 13 mph 87 % 0 in
11:47 47.8 °F 43.9 °F 29.5 in SSW 9 mph 14 mph 86 % 0 in
11:52 48 °F 43.7 °F 29.5 in SW 7 mph 14 mph 85 % 0 in
11:57 48 °F 43.3 °F 29.5 in WSW 8 mph 15 mph 84 % 0 in
12:02 48 °F 43.3 °F 29.5 in SW 6 mph 16 mph 84 % 0 in
12:07 48 °F 43.2 °F 29.5 in SSW 11 mph 16 mph 83 % 0 in
12:12 48 °F 43.3 °F 29.5 in SW 10 mph 14 mph 84 % 0 in
12:17 48 °F 43.7 °F 29.5 in SW 8 mph 15 mph 85 % 0 in
12:22 48 °F 43.3 °F 29.5 in SSW 5 mph 18 mph 84 % 0 in
12:27 48 °F 43.3 °F 29.5 in SSW 8 mph 18 mph 84 % 0 in
12:32 48 °F 43.3 °F 29.5 in SW 5 mph 18 mph 84 % 0 in
12:37 48 °F 42.8 °F 29.5 in SW 11 mph 15 mph 82 % 0 in
12:42 48 °F 43.2 °F 29.5 in SW 12 mph 19 mph 83 % 0 in
12:47 48 °F 42.8 °F 29.5 in SW 12 mph 19 mph 82 % 0 in
12:52 48 °F 43.2 °F 29.5 in WSW 8 mph 18 mph 83 % 0 in
12:57 48.4 °F 43.5 °F 29.5 in SW 9 mph 18 mph 83 % 0 in
13:02 48.7 °F 43.2 °F 29.5 in West 9 mph 17 mph 81 % 0 in
13:07 48.9 °F 44.1 °F 29.5 in SW 8 mph 16 mph 83 % 0 in
13:12 48.7 °F 42.8 °F 29.5 in SSW 8 mph 16 mph 80 % 0 in
13:22 48.7 °F 42.3 °F 29.5 in West 10 mph 19 mph 78 % 0 in
13:27 48.6 °F 42.1 °F 29.5 in WSW 8 mph 19 mph 78 % 0 in
13:32 48.7 °F 42.3 °F 29.5 in WSW 8 mph 20 mph 78 % 0 in
13:37 48.7 °F 41.9 °F 29.5 in West 9 mph 20 mph 77 % 0 in
13:42 48.7 °F 41.9 °F 29.5 in SSW 7 mph 18 mph 77 % 0 in
13:47 49.1 °F 42.6 °F 29.5 in SW 4 mph 18 mph 78 % 0 in
13:52 49.5 °F 42.6 °F 29.5 in SW 8 mph 17 mph 77 % 0 in
13:57 49.6 °F 42.1 °F 29.5 in SSW 6 mph 17 mph 75 % 0 in
14:02 49.6 °F 42.4 °F 29.5 in SW 12 mph 18 mph 76 % 0 in
14:07 49.8 °F 42.6 °F 29.5 in West 9 mph 18 mph 76 % 0 in
14:12 50.2 °F 42.6 °F 29.5 in SSW 9 mph 17 mph 75 % 0 in
14:17 50 °F 41.4 °F 29.5 in SW 10 mph 16 mph 72 % 0 in
14:22 49.8 °F 41.2 °F 29.5 in SW 10 mph 19 mph 72 % 0 in
14:27 49.6 °F 41 °F 29.5 in WSW 11 mph 19 mph 72 % 0 in
14:32 49.6 °F 41 °F 29.5 in SW 10 mph 18 mph 72 % 0 in
14:37 49.3 °F 40.3 °F 29.5 in NW 7 mph 18 mph 71 % 0 in
14:42 49.3 °F 40.6 °F 29.5 in West 5 mph 18 mph 72 % 0 in
14:47 49.3 °F 41.4 °F 29.5 in WSW 7 mph 16 mph 74 % 0 in
14:52 49.3 °F 41.4 °F 29.5 in SW 7 mph 13 mph 74 % 0 in
14:57 49.3 °F 41 °F 29.5 in WSW 5 mph 16 mph 73 % 0 in
15:02 49.3 °F 41.4 °F 29.5 in WSW 9 mph 16 mph 74 % 0 in
15:07 49.1 °F 41.5 °F 29.5 in SW 4 mph 16 mph 75 % 0 in
15:12 49.1 °F 41.9 °F 29.5 in West 3 mph 12 mph 76 % 0 in
15:17 49.1 °F 41.5 °F 29.5 in SW 9 mph 11 mph 75 % 0 in
15:22 49.1 °F 40.8 °F 29.5 in SW 6 mph 11 mph 73 % 0 in
15:32 48.9 °F 41 °F 29.5 in SW 5 mph 13 mph 74 % 0 in
15:37 48.9 °F 41 °F 29.5 in SW 7 mph 12 mph 74 % 0 in
15:42 48.9 °F 41.4 °F 29.5 in West 7 mph 12 mph 75 % 0 in
15:47 48.9 °F 41.4 °F 29.5 in SW 2 mph 10 mph 75 % 0 in
15:52 48.9 °F 41 °F 29.5 in SW 5 mph 10 mph 74 % 0 in
15:57 48.9 °F 41.7 °F 29.5 in WSW 6 mph 10 mph 76 % 0 in
16:02 48.7 °F 40.8 °F 29.5 in SW 7 mph 11 mph 74 % 0 in
16:07 48.7 °F 41.5 °F 29.6 in SSW 6 mph 13 mph 76 % 0 in
16:12 48.6 °F 41.4 °F 29.6 in SSW 3 mph 13 mph 76 % 0 in
16:17 48.6 °F 41.7 °F 29.6 in SW 5 mph 13 mph 77 % 0 in
16:22 48.6 °F 42.1 °F 29.6 in SSW 5 mph 9 mph 78 % 0 in
16:32 48.6 °F 42.1 °F 29.6 in SSW 6 mph 10 mph 78 % 0 in
16:42 48.2 °F 42.3 °F 29.6 in SSW 3 mph 11 mph 80 % 0 in
16:47 48.2 °F 42.3 °F 29.6 in SSW 5 mph 10 mph 80 % 0 in
16:52 48 °F 41.9 °F 29.6 in SSW 2 mph 9 mph 79 % 0 in
16:57 48 °F 42.1 °F 29.6 in South 3 mph 6 mph 80 % 0 in
17:02 48 °F 42.4 °F 29.6 in SSW 4 mph 6 mph 81 % 0 in
17:07 47.8 °F 41.9 °F 29.6 in SSW 4 mph 6 mph 80 % 0 in
17:12 47.7 °F 41.7 °F 29.6 in SSW 9 mph 9 mph 80 % 0 in
17:17 47.1 °F 41.9 °F 29.6 in South 6 mph 10 mph 82 % 0 in
17:22 46.8 °F 41.5 °F 29.6 in SSW 4 mph 10 mph 82 % 0 in
17:32 46 °F 41.5 °F 29.6 in SSE 3 mph 9 mph 84 % 0 in
17:37 45.9 °F 41.4 °F 29.6 in SSW 4 mph 7 mph 84 % 0 in
17:42 45.7 °F 41.2 °F 29.6 in SSW 4 mph 8 mph 84 % 0 in
17:47 45.3 °F 41.4 °F 29.6 in SW 8 mph 10 mph 86 % 0 in
17:52 45.1 °F 40.6 °F 29.6 in WSW 8 mph 10 mph 84 % 0 in
17:57 44.4 °F 40.5 °F 29.6 in WSW 10 mph 13 mph 86 % 0 in
18:02 43.9 °F 40.6 °F 29.6 in WSW 8 mph 13 mph 88 % 0.02 in
18:07 43.9 °F 40.3 °F 29.6 in SW 4 mph 12 mph 87 % 0.03 in
18:12 43.7 °F 40.1 °F 29.6 in WSW 3 mph 12 mph 87 % 0.06 in
18:17 43.5 °F 40.3 °F 29.6 in Calm   10 mph 88 % 0.06 in
18:22 43.5 °F 40.3 °F 29.6 in Calm   7 mph 88 % 0.06 in
18:27 43.3 °F 40.3 °F 29.6 in Calm   5 mph 89 % 0.06 in
18:32 43.2 °F 40.5 °F 29.6 in NNW 2 mph 2 mph 90 % 0.06 in
18:37 43.2 °F 40.5 °F 29.6 in Calm   2 mph 90 % 0.06 in
18:42 42.8 °F 40.3 °F 29.6 in NW 1 mph 2 mph 91 % 0.06 in
18:47 42.6 °F 40.1 °F 29.6 in Calm   3 mph 91 % 0.06 in
18:52 42.4 °F 39.9 °F 29.6 in Calm   3 mph 91 % 0.06 in
18:57 42.3 °F 39.7 °F 29.6 in Calm   3 mph 91 % 0.06 in
19:02 42.1 °F 39.9 °F 29.6 in Calm   1 mph 92 % 0.04 in
19:07 42.1 °F 39.9 °F 29.6 in North 1 mph 1 mph 92 % 0.02 in
19:12 41.9 °F 39.7 °F 29.6 in Calm   2 mph 92 % 0.01 in
19:17 41.7 °F 39.6 °F 29.6 in NNE 1 mph 2 mph 92 % 0.01 in
19:22 41.5 °F 39.4 °F 29.6 in NE 1 mph 2 mph 92 % 0 in
19:27 41.5 °F 39.9 °F 29.6 in ENE 2 mph 3 mph 94 % 0 in
19:32 41.5 °F 39.7 °F 29.6 in Calm   3 mph 93 % 0 in
19:37 41.4 °F 39.6 °F 29.6 in Calm   3 mph 93 % 0 in
19:42 41.2 °F 39.6 °F 29.7 in Calm   2 mph 94 % 0 in
19:47 41.2 °F 39.6 °F 29.7 in NNW 1 mph 1 mph 94 % 0 in
19:52 41.4 °F 39.7 °F 29.7 in Calm   2 mph 94 % 0 in
19:57 41.5 °F 39.9 °F 29.7 in Calm   2 mph 94 % 0 in
20:02 41.5 °F 39.7 °F 29.7 in Calm   2 mph 93 % 0 in
20:07 41.4 °F 39.6 °F 29.7 in Calm   1 mph 93 % 0 in
20:12 41.4 °F 39.6 °F 29.7 in Calm   1 mph 93 % 0 in
20:17 41.5 °F 39.7 °F 29.7 in Calm   1 mph 93 % 0 in
20:22 41.7 °F 39.6 °F 29.7 in Calm   1 mph 92 % 0 in
20:32 41.4 °F 39.2 °F 29.7 in Calm     92 % 0 in
20:42 40.8 °F 39 °F 29.7 in Calm     93 % 0 in
20:47 40.8 °F 39 °F 29.7 in Calm     93 % 0 in
20:52 41.2 °F 39.4 °F 29.7 in Calm     93 % 0 in
20:57 41.2 °F 39.4 °F 29.7 in Calm     93 % 0 in
21:02 41.2 °F 39 °F 29.7 in Calm     92 % 0 in
21:07 41.2 °F 39 °F 29.7 in Calm     92 % 0 in
21:12 40.8 °F 39 °F 29.7 in Calm     93 % 0 in
21:17 41.2 °F 39.4 °F 29.7 in Calm     93 % 0 in
21:22 41.4 °F 39.2 °F 29.7 in Calm   1 mph 92 % 0 in
21:27 41.4 °F 39 °F 29.7 in Calm   1 mph 91 % 0 in
21:32 41.2 °F 38.8 °F 29.7 in Calm   1 mph 91 % 0 in
21:37 41 °F 38.7 °F 29.7 in Calm   1 mph 91 % 0 in
21:42 40.5 °F 38.3 °F 29.7 in West 2 mph 2 mph 92 % 0 in
21:47 40.6 °F 38.5 °F 29.7 in Calm   3 mph 92 % 0 in
21:52 41.2 °F 38.8 °F 29.7 in WNW 4 mph 4 mph 91 % 0 in
21:57 41.5 °F 38.8 °F 29.7 in NW 3 mph 6 mph 90 % 0 in
22:02 41.7 °F 38.7 °F 29.7 in WNW 3 mph 6 mph 89 % 0 in
22:07 41.9 °F 38.8 °F 29.7 in WNW 5 mph 6 mph 89 % 0 in
22:12 42.3 °F 39 °F 29.7 in WNW 7 mph 10 mph 88 % 0 in
22:17 42.4 °F 39.2 °F 29.8 in WNW 10 mph 11 mph 88 % 0.01 in
22:22 42.8 °F 39.6 °F 29.8 in WNW 7 mph 14 mph 88 % 0.01 in
22:27 43 °F 39.7 °F 29.8 in NW 6 mph 16 mph 88 % 0.01 in
22:32 42.8 °F 39.6 °F 29.8 in NW 8 mph 16 mph 88 % 0.01 in
22:37 42.6 °F 39.4 °F 29.8 in WNW 11 mph 21 mph 88 % 0.01 in
22:42 42.4 °F 39.4 °F 29.8 in NW 16 mph 21 mph 89 % 0.01 in
22:47 42.3 °F 39.2 °F 29.8 in WNW 7 mph 21 mph 89 % 0.01 in
22:52 42.1 °F 39.4 °F 29.8 in WNW 6 mph 19 mph 90 % 0.01 in
22:57 42.1 °F 39.4 °F 29.8 in WNW 5 mph 20 mph 90 % 0.01 in
23:02 42.1 °F 39.4 °F 29.8 in WNW 12 mph 20 mph 90 % 0.01 in
23:07 42.3 °F 39.6 °F 29.8 in NW 12 mph 20 mph 90 % 0.01 in
23:12 42.4 °F 39.7 °F 29.8 in West 7 mph 23 mph 90 % 0 in
23:17 42.4 °F 39.7 °F 29.8 in WNW 12 mph 23 mph 90 % 0 in
23:22 42.4 °F 39.7 °F 29.8 in NW 13 mph 23 mph 90 % 0 in
23:27 42.4 °F 39.7 °F 29.8 in WNW 9 mph 20 mph 90 % 0 in
23:32 42.4 °F 39.7 °F 29.8 in WNW 7 mph 18 mph 90 % 0 in
23:37 42.4 °F 39.7 °F 29.8 in WNW 10 mph 17 mph 90 % 0 in
23:42 42.6 °F 39.9 °F 29.8 in NNW 11 mph 17 mph 90 % 0 in
23:47 42.6 °F 39.9 °F 29.8 in WNW 13 mph 20 mph 90 % 0 in
23:52 42.6 °F 39.9 °F 29.8 in WNW 13 mph 20 mph 90 % 0 in
23:57 42.4 °F 39.7 °F 29.8 in WNW 7 mph 20 mph 90 % 0 in
Meteo18
Compliments of Weather Underground - 4 mb

Script developed by  Jim McMurry - jmcmurry@mwt.net Adapted for the template by  Wim van der Kuil - Leuven-Template.eu

You find our weather info also at:

European Weather Network

Weather Underground

Equipment we use:

Weather-station
Davis Vue

Weather-program
Meteohub

Weather-server
Raspberry PI 2 B+

Provider
1 and 1

Davis Vue

Meteohub

Raspberry PI 2 B+

1 and 1